createdAt,value
2023-04-28T00:00:17.297Z,71.91
2023-04-28T00:03:06.342Z,72.48
2023-04-28T00:05:36.581Z,72.30
2023-04-28T00:08:06.680Z,72.38
2023-04-28T00:10:36.110Z,72.73
2023-04-28T00:13:05.156Z,73.10
2023-04-28T00:15:34.090Z,72.91
2023-04-28T00:18:03.098Z,72.92
2023-04-28T00:20:31.895Z,72.47
2023-04-28T00:23:02.144Z,72.40
2023-04-28T00:25:31.195Z,72.27
2023-04-28T00:28:00.277Z,72.12
2023-04-28T00:30:30.933Z,72.06
2023-04-28T00:32:59.953Z,72.45
2023-04-28T00:35:28.790Z,72.45
2023-04-28T00:37:57.679Z,72.34
2023-04-28T00:40:34.979Z,72.49
2023-04-28T00:43:04.898Z,72.51
2023-04-28T00:45:33.790Z,72.37
2023-04-28T00:48:03.748Z,72.97
2023-04-28T00:50:32.515Z,73.42
2023-04-28T00:53:02.172Z,73.24
2023-04-28T00:55:36.229Z,72.95
2023-04-28T00:58:06.747Z,72.98
2023-04-28T01:00:35.713Z,73.02
2023-04-28T01:03:05.175Z,73.57
2023-04-28T01:05:38.059Z,73.79
2023-04-28T01:08:07.463Z,73.10
2023-04-28T01:10:45.260Z,72.90
2023-04-28T01:13:23.790Z,72.80
2023-04-28T01:15:53.749Z,73.35
2023-04-28T01:18:23.597Z,73.47
2023-04-28T01:20:52.438Z,73.64
2023-04-28T01:23:21.830Z,74.32
2023-04-28T01:25:51.972Z,74.50
2023-04-28T01:28:20.934Z,74.38
2023-04-28T01:30:49.612Z,74.16
2023-04-28T01:33:18.597Z,74.02
2023-04-28T01:35:47.304Z,74.19
2023-04-28T01:38:16.295Z,74.56
2023-04-28T01:40:46.367Z,74.95
2023-04-28T01:43:16.957Z,74.14
2023-04-28T01:45:46.185Z,74.03
2023-04-28T01:48:15.134Z,74.00
2023-04-28T01:50:43.893Z,74.93
2023-04-28T01:53:14.267Z,75.47
2023-04-28T01:55:43.082Z,75.40
2023-04-28T01:58:12.302Z,75.16
2023-04-28T02:00:42.474Z,74.94
2023-04-28T02:03:11.819Z,75.04
2023-04-28T02:05:40.484Z,75.90
2023-04-28T02:08:09.530Z,75.52
2023-04-28T02:10:38.347Z,75.91
2023-04-28T02:13:07.479Z,75.67
2023-04-28T02:15:40.594Z,74.89
2023-04-28T02:18:11.300Z,75.06
2023-04-28T02:20:42.072Z,74.71
2023-04-28T02:23:11.041Z,74.52
2023-04-28T02:25:39.793Z,74.35
2023-04-28T02:28:08.770Z,74.18
2023-04-28T02:30:37.518Z,74.36
2023-04-28T02:33:06.450Z,74.35
2023-04-28T02:35:36.740Z,74.39
2023-04-28T02:38:05.767Z,74.34
2023-04-28T02:40:34.448Z,73.87
2023-04-28T02:43:03.468Z,74.08
2023-04-28T02:45:32.252Z,74.11
2023-04-28T02:48:03.673Z,73.96
2023-04-28T02:50:32.382Z,73.91
2023-04-28T02:53:02.666Z,74.10
2023-04-28T02:55:32.225Z,74.29
2023-04-28T02:58:01.306Z,74.50
2023-04-28T03:00:30.681Z,74.87
2023-04-28T03:02:59.992Z,75.74
2023-04-28T03:05:29.217Z,76.09
2023-04-28T03:07:58.999Z,76.09
2023-04-28T03:10:29.411Z,76.34
2023-04-28T03:12:58.452Z,76.12
2023-04-28T03:15:27.159Z,76.25
2023-04-28T03:17:56.229Z,76.63
2023-04-28T03:20:26.152Z,77.25
2023-04-28T03:22:55.299Z,77.15
2023-04-28T03:25:24.597Z,76.68
2023-04-28T03:27:56.067Z,76.44
2023-04-28T03:30:24.835Z,77.17
2023-04-28T03:32:53.871Z,76.92
2023-04-28T03:35:22.886Z,76.61
2023-04-28T03:37:52.139Z,76.52
2023-04-28T03:40:20.985Z,75.73
2023-04-28T03:43:20.430Z,75.75
2023-04-28T03:46:07.985Z,76.26
2023-04-28T03:48:37.163Z,76.16
2023-04-28T03:51:06.198Z,76.20
2023-04-28T03:53:35.114Z,75.99
2023-04-28T03:56:03.803Z,75.87
2023-04-28T03:58:34.281Z,76.37
2023-04-28T04:01:03.253Z,76.01
2023-04-28T04:03:32.752Z,76.27
2023-04-28T04:06:02.027Z,76.86
2023-04-28T04:08:32.933Z,76.47
2023-04-28T04:11:02.609Z,76.82
2023-04-28T04:13:33.989Z,76.78
2023-04-28T04:16:08.317Z,76.78
2023-04-28T04:18:37.861Z,76.91
2023-04-28T04:21:22.270Z,76.82
2023-04-28T04:23:53.194Z,76.62
2023-04-28T04:26:22.313Z,76.86
2023-04-28T04:28:54.066Z,76.99
2023-04-28T04:31:23.087Z,76.99
2023-04-28T04:33:53.476Z,76.88
2023-04-28T04:36:23.614Z,76.75
2023-04-28T04:38:54.360Z,76.57
2023-04-28T04:41:24.897Z,76.71
2023-04-28T04:44:06.204Z,76.27
2023-04-28T04:46:41.168Z,76.28
2023-04-28T04:49:10.322Z,76.34
2023-04-28T04:51:39.090Z,76.75
2023-04-28T04:54:08.629Z,76.34
2023-04-28T04:56:38.542Z,75.03
2023-04-28T04:59:09.146Z,73.25
2023-04-28T05:01:46.980Z,72.45
2023-04-28T05:04:16.529Z,71.74
2023-04-28T05:06:45.975Z,71.64
2023-04-28T05:09:14.916Z,71.55
2023-04-28T05:11:43.637Z,71.33
2023-04-28T05:14:14.061Z,70.38
2023-04-28T05:16:44.162Z,69.95
2023-04-28T05:19:18.179Z,69.20
2023-04-28T05:21:48.062Z,68.43
2023-04-28T05:24:17.417Z,68.15
2023-04-28T05:26:46.325Z,68.41
2023-04-28T05:29:16.750Z,67.07
2023-04-28T05:31:45.559Z,65.24
2023-04-28T05:34:14.807Z,65.14
2023-04-28T05:36:45.796Z,64.24
2023-04-28T05:39:15.572Z,63.28
2023-04-28T05:41:44.453Z,60.33
2023-04-28T05:44:13.815Z,59.70
2023-04-28T05:46:43.942Z,58.62
2023-04-28T05:49:12.927Z,57.27
2023-04-28T05:51:41.643Z,57.03
2023-04-28T05:54:10.841Z,56.30
2023-04-28T05:56:44.931Z,54.36
2023-04-28T05:59:14.590Z,53.29
2023-04-28T06:01:44.940Z,53.78
2023-04-28T06:04:14.630Z,53.38
2023-04-28T06:06:43.637Z,52.20
2023-04-28T06:09:12.656Z,51.46
2023-04-28T06:11:41.310Z,52.11
2023-04-28T06:14:11.484Z,50.15
2023-04-28T06:16:40.164Z,49.25
2023-04-28T06:19:10.981Z,48.95
2023-04-28T06:21:39.625Z,48.30
2023-04-28T06:24:08.779Z,48.80
2023-04-28T06:26:38.316Z,47.42
2023-04-28T06:29:07.421Z,46.55
2023-04-28T06:31:37.152Z,47.19
2023-04-28T06:34:06.550Z,46.92
2023-04-28T06:36:37.081Z,45.91
2023-04-28T06:39:07.140Z,46.39
2023-04-28T06:41:37.052Z,45.91
2023-04-28T06:44:07.433Z,46.76
2023-04-28T06:46:38.452Z,45.75
2023-04-28T06:49:08.042Z,44.76
2023-04-28T06:51:38.166Z,45.95
2023-04-28T06:54:07.315Z,44.70
2023-04-28T06:56:37.364Z,45.36
2023-04-28T06:59:06.394Z,44.75
2023-04-28T07:01:35.261Z,44.91
2023-04-28T07:04:04.426Z,42.84
2023-04-28T07:06:33.201Z,42.96
2023-04-28T07:09:04.631Z,43.58
2023-04-28T07:11:33.773Z,42.90
2023-04-28T07:14:02.889Z,43.15
2023-04-28T07:16:31.845Z,42.74
2023-04-28T07:19:01.063Z,41.66
2023-04-28T07:21:29.808Z,41.70
2023-04-28T07:23:58.972Z,41.86
2023-04-28T07:26:29.181Z,41.36
2023-04-28T07:28:58.225Z,41.57
2023-04-28T07:31:26.991Z,41.88
2023-04-28T07:33:56.469Z,40.44
2023-04-28T07:36:25.274Z,40.39
2023-04-28T07:38:54.619Z,41.83
2023-04-28T07:41:23.872Z,40.02
2023-04-28T07:43:54.215Z,39.29
2023-04-28T07:46:23.871Z,39.18
2023-04-28T07:48:52.941Z,39.25
2023-04-28T07:51:21.807Z,38.57
2023-04-28T07:53:51.002Z,37.09
2023-04-28T07:56:19.821Z,35.58
2023-04-28T07:58:49.037Z,34.85
2023-04-28T08:01:19.257Z,34.64
2023-04-28T08:03:48.605Z,34.38
2023-04-28T08:06:17.667Z,34.24
2023-04-28T08:08:47.231Z,36.01
2023-04-28T08:11:16.010Z,35.60
2023-04-28T08:13:44.969Z,36.99
2023-04-28T08:16:13.885Z,35.97
2023-04-28T08:18:44.348Z,36.56
2023-04-28T08:21:13.127Z,37.42
2023-04-28T08:23:42.181Z,35.92
2023-04-28T08:26:10.945Z,35.81
2023-04-28T08:28:40.447Z,36.30
2023-04-28T08:31:09.156Z,37.05
2023-04-28T08:33:39.114Z,38.33
2023-04-28T08:36:11.958Z,36.41
2023-04-28T08:38:41.652Z,37.03
2023-04-28T08:41:10.648Z,37.41
2023-04-28T08:43:42.910Z,35.20
2023-04-28T08:46:12.361Z,34.50
2023-04-28T08:48:45.197Z,35.13
2023-04-28T08:51:26.816Z,33.40
2023-04-28T08:56:35.845Z,34.23
2023-04-28T08:59:06.261Z,32.66
2023-04-28T09:01:36.191Z,33.37
2023-04-28T09:04:05.609Z,33.64
2023-04-28T09:06:39.272Z,33.78
2023-04-28T09:09:22.681Z,33.35
2023-04-28T09:11:56.654Z,32.15
2023-04-28T09:14:25.868Z,31.42
2023-04-28T09:16:55.094Z,32.33
2023-04-28T09:19:24.761Z,32.96
2023-04-28T09:21:56.749Z,31.32
2023-04-28T09:24:31.379Z,30.18
2023-04-28T09:27:01.038Z,29.18
2023-04-28T09:29:30.487Z,30.06
2023-04-28T09:32:16.127Z,29.74
2023-04-28T09:34:47.078Z,30.67
2023-04-28T09:37:22.560Z,31.44
2023-04-28T09:39:54.105Z,31.58
2023-04-28T09:42:36.639Z,31.68
2023-04-28T09:45:08.288Z,31.89
2023-04-28T09:47:39.293Z,31.40
2023-04-28T09:50:12.779Z,28.96
2023-04-28T09:52:45.943Z,29.35
2023-04-28T09:55:15.370Z,31.33
2023-04-28T09:57:47.919Z,31.57
2023-04-28T10:00:20.699Z,31.20
2023-04-28T10:02:52.866Z,29.94
2023-04-28T10:05:24.246Z,30.90
2023-04-28T10:07:55.503Z,31.51
2023-04-28T10:10:25.277Z,31.68
2023-04-28T10:12:54.395Z,32.14
2023-04-28T10:15:24.815Z,32.17
2023-04-28T10:17:55.358Z,33.30
2023-04-28T10:20:26.247Z,34.02
2023-04-28T10:23:18.571Z,31.89
2023-04-28T10:25:56.190Z,31.74
2023-04-28T10:28:26.326Z,32.14
2023-04-28T10:31:12.191Z,30.47
2023-04-28T10:33:42.687Z,30.27
2023-04-28T10:36:12.338Z,30.69
2023-04-28T10:39:13.299Z,30.99
2023-04-28T10:41:42.405Z,31.28
2023-04-28T10:44:44.875Z,32.11
2023-04-28T10:47:14.027Z,32.08
2023-04-28T10:50:11.748Z,30.99
2023-04-28T10:52:51.105Z,27.86
2023-04-28T10:55:33.694Z,28.31
2023-04-28T10:58:33.603Z,29.29
2023-04-28T11:01:32.044Z,28.81
2023-04-28T11:04:10.875Z,27.63
2023-04-28T11:06:41.863Z,26.93
2023-04-28T11:09:49.895Z,26.92
2023-04-28T11:12:20.011Z,28.01
2023-04-28T11:14:48.971Z,27.70
2023-04-28T11:17:19.508Z,27.76
2023-04-28T11:19:51.313Z,28.81
2023-04-28T11:22:22.754Z,28.16
2023-04-28T11:24:58.909Z,26.25
2023-04-28T11:27:30.900Z,25.94
2023-04-28T11:30:01.570Z,25.94
2023-04-28T11:32:32.586Z,24.67
2023-04-28T11:35:01.705Z,24.39
2023-04-28T11:37:30.595Z,25.94
2023-04-28T11:39:59.670Z,26.04
2023-04-28T11:42:29.704Z,27.39
2023-04-28T11:44:58.575Z,27.86
2023-04-28T11:47:32.994Z,26.57
2023-04-28T11:50:03.419Z,27.93
2023-04-28T11:52:32.324Z,28.16
2023-04-28T11:55:02.567Z,27.82
2023-04-28T11:57:32.866Z,28.60
2023-04-28T12:00:21.809Z,29.74
2023-04-28T12:02:51.057Z,29.14
2023-04-28T12:05:22.260Z,29.37
2023-04-28T12:07:51.235Z,29.91
2023-04-28T12:10:20.626Z,30.10
2023-04-28T12:12:53.155Z,29.08
2023-04-28T12:15:24.859Z,28.24
2023-04-28T12:17:53.901Z,29.54
2023-04-28T12:20:37.935Z,29.29
2023-04-28T12:23:07.924Z,30.56
2023-04-28T12:25:45.743Z,32.69
2023-04-28T12:28:16.100Z,31.35
2023-04-28T12:30:45.528Z,30.42
2023-04-28T12:33:25.359Z,30.57
2023-04-28T12:35:55.288Z,29.96
2023-04-28T12:38:24.670Z,29.74
2023-04-28T12:40:54.244Z,29.91
2023-04-28T12:43:25.796Z,29.63
2023-04-28T12:45:56.639Z,30.27
2023-04-28T12:48:25.625Z,30.17
2023-04-28T12:50:54.736Z,30.85
2023-04-28T12:53:23.344Z,30.92
2023-04-28T12:55:52.519Z,30.99
2023-04-28T12:58:21.374Z,32.18
2023-04-28T13:00:51.774Z,32.17
2023-04-28T13:03:21.525Z,31.49
2023-04-28T13:05:51.593Z,31.57
2023-04-28T13:08:20.241Z,33.13
2023-04-28T13:10:49.195Z,32.05
2023-04-28T13:13:17.795Z,32.12
2023-04-28T13:15:47.189Z,31.67
2023-04-28T13:18:17.332Z,32.16
2023-04-28T13:20:46.308Z,31.36
2023-04-28T13:23:14.977Z,32.09
2023-04-28T13:25:44.523Z,33.12
2023-04-28T13:28:14.519Z,32.38
2023-04-28T13:30:43.446Z,33.50
2023-04-28T13:33:12.109Z,32.23
2023-04-28T13:35:42.442Z,31.64
2023-04-28T13:38:11.235Z,31.39
2023-04-28T13:40:40.137Z,31.17
2023-04-28T13:43:08.834Z,32.25
2023-04-28T13:45:37.966Z,30.68
2023-04-28T13:48:07.054Z,30.45
2023-04-28T13:50:38.136Z,31.40
2023-04-28T13:53:09.604Z,31.04
2023-04-28T13:55:39.117Z,30.54
2023-04-28T13:58:07.903Z,31.06
2023-04-28T14:00:37.629Z,31.25
2023-04-28T14:03:06.475Z,32.53
2023-04-28T14:05:48.223Z,30.96
2023-04-28T14:08:20.595Z,29.78
2023-04-28T14:10:50.639Z,30.94
2023-04-28T14:13:20.524Z,30.60
2023-04-28T14:15:58.506Z,30.89
2023-04-28T14:18:28.576Z,31.20
2023-04-28T14:20:57.795Z,32.01
2023-04-28T14:23:28.741Z,32.27
2023-04-28T14:25:58.202Z,31.86
2023-04-28T14:28:27.048Z,31.93
2023-04-28T14:30:56.558Z,32.17
2023-04-28T14:33:25.364Z,31.62
2023-04-28T14:35:54.443Z,31.61
2023-04-28T14:38:24.356Z,31.71
2023-04-28T14:40:54.772Z,31.64
2023-04-28T14:43:23.974Z,32.53
2023-04-28T14:45:53.612Z,32.35
2023-04-28T14:48:23.053Z,32.14
2023-04-28T14:50:52.421Z,32.23
2023-04-28T14:53:21.217Z,32.11
2023-04-28T14:55:50.225Z,32.68
2023-04-28T14:58:20.315Z,32.60
2023-04-28T15:00:49.362Z,32.79
2023-04-28T15:03:18.226Z,33.30
2023-04-28T15:05:47.256Z,33.95
2023-04-28T15:08:16.093Z,33.08
2023-04-28T15:10:45.392Z,32.64
2023-04-28T15:13:14.060Z,33.13
2023-04-28T15:15:44.359Z,32.99
2023-04-28T15:18:13.149Z,33.04
2023-04-28T15:20:42.261Z,33.55
2023-04-28T15:23:11.265Z,34.59
2023-04-28T15:25:40.152Z,33.55
2023-04-28T15:28:08.977Z,33.65
2023-04-28T15:30:38.196Z,34.02
2023-04-28T15:33:09.524Z,34.35
2023-04-28T15:35:39.216Z,34.92
2023-04-28T15:38:08.414Z,33.81
2023-04-28T15:40:39.462Z,35.40
2023-04-28T15:43:09.146Z,35.06
2023-04-28T15:45:39.744Z,35.41
2023-04-28T15:48:12.097Z,34.24
2023-04-28T15:50:41.764Z,35.13
2023-04-28T15:53:10.447Z,33.78
2023-04-28T15:55:39.401Z,34.02
2023-04-28T15:58:09.465Z,33.94
2023-04-28T16:00:40.661Z,34.61
2023-04-28T16:03:11.130Z,35.05
2023-04-28T16:05:40.412Z,33.94
2023-04-28T16:08:09.160Z,34.37
2023-04-28T16:10:41.181Z,34.78
2023-04-28T16:13:11.342Z,35.08
2023-04-28T16:15:41.851Z,34.36
2023-04-28T16:18:12.086Z,34.84
2023-04-28T16:20:41.304Z,35.00
2023-04-28T16:23:13.899Z,34.90
2023-04-28T16:25:43.114Z,35.28
2023-04-28T16:28:11.818Z,34.70
2023-04-28T16:30:41.085Z,34.17
2023-04-28T16:33:11.368Z,34.23
2023-04-28T16:35:40.404Z,34.39
2023-04-28T16:38:09.101Z,35.09
2023-04-28T16:40:38.112Z,35.67
2023-04-28T16:43:06.916Z,35.87
2023-04-28T16:45:35.956Z,35.50
2023-04-28T16:48:05.078Z,35.33
2023-04-28T16:50:36.144Z,36.17
2023-04-28T16:53:04.786Z,36.71
2023-04-28T16:55:33.799Z,36.28
2023-04-28T16:58:02.450Z,36.68
2023-04-28T17:00:31.654Z,36.86
2023-04-28T17:03:00.581Z,36.71
2023-04-28T17:05:29.951Z,37.46
2023-04-28T17:08:00.202Z,37.28
2023-04-28T17:10:29.350Z,37.69
2023-04-28T17:12:58.015Z,38.02
2023-04-28T17:15:27.277Z,38.94
2023-04-28T17:17:56.351Z,38.62
2023-04-28T17:20:25.813Z,38.86
2023-04-28T17:22:54.773Z,39.15
2023-04-28T17:25:25.733Z,39.46
2023-04-28T17:27:54.615Z,39.68
2023-04-28T17:30:25.976Z,39.56
2023-04-28T17:32:55.462Z,40.27
2023-04-28T17:35:24.598Z,40.63
2023-04-28T17:37:53.385Z,40.78
2023-04-28T17:40:24.172Z,40.98
2023-04-28T17:42:56.625Z,40.94
2023-04-28T17:45:25.907Z,40.67
2023-04-28T17:47:56.385Z,41.25
2023-04-28T17:50:25.837Z,41.10
2023-04-28T17:52:54.561Z,41.86
2023-04-28T17:55:23.542Z,41.50
2023-04-28T17:57:53.771Z,41.21
2023-04-28T18:00:23.028Z,41.27
2023-04-28T18:02:52.648Z,41.74
2023-04-28T18:05:24.106Z,41.81
2023-04-28T18:07:52.951Z,42.20
2023-04-28T18:10:22.044Z,41.80
2023-04-28T18:12:53.507Z,42.37
2023-04-28T18:15:24.087Z,42.68
2023-04-28T18:17:53.050Z,42.47
2023-04-28T18:20:22.240Z,43.37
2023-04-28T18:22:51.222Z,42.98
2023-04-28T18:25:20.655Z,42.96
2023-04-28T18:27:49.374Z,43.17
2023-04-28T18:30:18.428Z,42.99
2023-04-28T18:32:49.588Z,43.23
2023-04-28T18:35:19.203Z,43.46
2023-04-28T18:37:48.270Z,43.20
2023-04-28T18:40:17.477Z,43.00
2023-04-28T18:42:46.606Z,43.80
2023-04-28T18:45:15.999Z,43.64
2023-04-28T18:47:44.701Z,43.95
2023-04-28T18:50:15.418Z,43.67
2023-04-28T18:52:44.235Z,44.40
2023-04-28T18:55:14.612Z,43.77
2023-04-28T18:57:43.527Z,44.12
2023-04-28T19:00:12.848Z,44.22
2023-04-28T19:02:41.840Z,44.75
2023-04-28T19:05:11.888Z,44.43
2023-04-28T19:07:42.135Z,44.50
2023-04-28T19:10:14.065Z,44.42
2023-04-28T19:12:42.786Z,44.76
2023-04-28T19:15:11.851Z,44.52
2023-04-28T19:17:40.813Z,44.97
2023-04-28T19:20:10.622Z,44.75
2023-04-28T19:22:43.798Z,44.85
2023-04-28T19:25:13.733Z,44.30
2023-04-28T19:27:44.062Z,44.58
2023-04-28T19:30:15.075Z,44.59
2023-04-28T19:32:44.083Z,44.89
2023-04-28T19:35:13.274Z,45.07
2023-04-28T19:37:44.072Z,45.31
2023-04-28T19:40:14.290Z,45.03
2023-04-28T19:42:42.980Z,45.00
2023-04-28T19:45:12.759Z,45.27
2023-04-28T19:47:41.555Z,45.82
2023-04-28T19:50:11.662Z,45.86
2023-04-28T19:52:40.361Z,46.00
2023-04-28T19:55:11.538Z,45.83
2023-04-28T19:57:40.946Z,46.06
2023-04-28T20:00:11.504Z,46.18
2023-04-28T20:02:40.452Z,46.09
2023-04-28T20:05:10.165Z,46.39
2023-04-28T20:07:40.428Z,46.53
2023-04-28T20:10:11.776Z,46.68
2023-04-28T20:12:41.180Z,47.07
2023-04-28T20:15:10.717Z,47.43
2023-04-28T20:17:39.632Z,47.67
2023-04-28T20:20:10.070Z,47.59
2023-04-28T20:22:38.880Z,47.54
2023-04-28T20:25:10.931Z,47.90
2023-04-28T20:27:39.705Z,48.18
2023-04-28T20:30:10.166Z,48.43
2023-04-28T20:32:39.451Z,48.10
2023-04-28T20:35:08.983Z,48.16
2023-04-28T20:37:37.858Z,48.08
2023-04-28T20:40:10.235Z,48.70
2023-04-28T20:42:40.713Z,48.70
2023-04-28T20:45:11.491Z,48.51
2023-04-28T20:47:40.650Z,48.92
2023-04-28T20:50:12.162Z,48.92
2023-04-28T20:52:40.912Z,48.92
2023-04-28T20:55:11.466Z,49.21
2023-04-28T20:57:41.629Z,49.49
2023-04-28T21:00:13.041Z,49.49
2023-04-28T21:02:41.847Z,49.58
2023-04-28T21:05:11.188Z,49.61
2023-04-28T21:07:39.825Z,49.93
2023-04-28T21:10:10.675Z,49.84
2023-04-28T21:12:39.464Z,50.25
2023-04-28T21:15:10.700Z,50.35
2023-04-28T21:17:39.671Z,50.64
2023-04-28T21:20:09.848Z,51.02
2023-04-28T21:22:38.933Z,50.85
2023-04-28T21:25:08.753Z,51.36
2023-04-28T21:27:37.432Z,51.54
2023-04-28T21:30:10.261Z,51.19
2023-04-28T21:32:39.130Z,51.83
2023-04-28T21:35:09.319Z,52.04
2023-04-28T21:37:38.120Z,51.97
2023-04-28T21:40:08.973Z,52.46
2023-04-28T21:42:37.720Z,52.28
2023-04-28T21:45:10.239Z,52.46
2023-04-28T21:47:42.060Z,52.58
2023-04-28T21:50:12.538Z,52.82
2023-04-28T21:52:41.222Z,52.75
2023-04-28T21:55:11.013Z,52.57
2023-04-28T21:57:39.692Z,53.08
2023-04-28T22:00:12.699Z,53.31
2023-04-28T22:02:44.686Z,53.45
2023-04-28T22:05:13.821Z,53.63
2023-04-28T22:07:42.630Z,53.69
2023-04-28T22:10:13.382Z,53.99
2023-04-28T22:12:42.112Z,53.81
2023-04-28T22:15:12.941Z,54.25
2023-04-28T22:17:41.694Z,54.21
2023-04-28T22:20:11.941Z,54.56
2023-04-28T22:22:41.714Z,54.40
2023-04-28T22:25:11.673Z,54.81
2023-04-28T22:27:40.609Z,55.12
2023-04-28T22:30:12.578Z,54.92
2023-04-28T22:32:44.586Z,55.00
2023-04-28T22:35:14.188Z,55.58
2023-04-28T22:37:43.607Z,55.66
2023-04-28T22:40:13.091Z,55.49
2023-04-28T22:42:43.561Z,55.65
2023-04-28T22:45:14.587Z,55.82
2023-04-28T22:47:43.580Z,56.32
2023-04-28T22:50:13.047Z,56.29
2023-04-28T22:52:41.882Z,56.73
2023-04-28T22:55:11.893Z,56.85
2023-04-28T22:57:40.606Z,57.16
2023-04-28T23:00:11.193Z,57.01
2023-04-28T23:02:42.355Z,57.75
2023-04-28T23:05:11.795Z,57.84
2023-04-28T23:07:40.776Z,57.89
2023-04-28T23:10:11.528Z,58.54
2023-04-28T23:12:41.849Z,58.40
2023-04-28T23:15:11.928Z,58.48
2023-04-28T23:17:43.061Z,58.16
2023-04-28T23:20:13.300Z,58.40
2023-04-28T23:22:41.985Z,58.03
2023-04-28T23:25:11.577Z,58.13
2023-04-28T23:27:40.208Z,58.46
2023-04-28T23:30:11.117Z,58.41
2023-04-28T23:32:42.459Z,58.53
2023-04-28T23:35:11.542Z,58.71
2023-04-28T23:37:40.160Z,58.63
2023-04-28T23:40:11.757Z,58.68
2023-04-28T23:42:41.092Z,59.15
2023-04-28T23:45:11.323Z,58.92
2023-04-28T23:47:41.763Z,58.91
2023-04-28T23:50:11.772Z,59.10
2023-04-28T23:52:41.125Z,59.01
2023-04-28T23:55:13.021Z,58.82
2023-04-28T23:57:41.955Z,59.36
